createdAt,value
2022-08-05T00:15:54.665Z,21.97
2022-08-05T00:34:42.796Z,21.66
2022-08-05T00:55:20.742Z,21.46
2022-08-05T01:13:22.213Z,21.37
2022-08-05T01:34:18.770Z,21.09
2022-08-05T01:54:32.626Z,21
2022-08-05T02:34:04.365Z,20.75
2022-08-05T02:54:34.560Z,20.66
2022-08-05T03:14:49.837Z,20.82
2022-08-05T03:34:30.601Z,21.55
2022-08-05T03:55:54.455Z,21.99
2022-08-05T04:15:19.256Z,22.42
2022-08-05T04:34:19.533Z,22.61
2022-08-05T04:54:50.588Z,22.84
2022-08-05T05:15:12.491Z,22.95
2022-08-05T05:35:24.251Z,23.18
2022-08-05T05:55:13.172Z,23.46
2022-08-05T06:14:06.154Z,23.5
2022-08-05T06:34:59.187Z,23.83
2022-08-05T06:54:20.357Z,24.36
2022-08-05T07:14:03.111Z,25.16
2022-08-05T07:35:56.526Z,25.71
2022-08-05T07:54:20.872Z,26.15
2022-08-05T08:14:26.296Z,26.59
2022-08-05T08:35:21.776Z,26.76
2022-08-05T08:54:02.529Z,27.24
2022-08-05T09:15:15.114Z,27.61
2022-08-05T09:34:45.872Z,28.22
2022-08-05T09:54:03.283Z,29.06
2022-08-05T10:15:26.605Z,29.34
2022-08-05T10:35:22.725Z,30.96
2022-08-05T10:55:04.901Z,32.38
2022-08-05T11:14:58.073Z,31.36
2022-08-05T11:35:26.174Z,30.79
2022-08-05T11:56:20.440Z,32.06
2022-08-05T12:34:28.663Z,34.38
2022-08-05T12:54:48.216Z,34.32
2022-08-05T13:14:59.284Z,33.13
2022-08-05T13:34:59.728Z,32.83
2022-08-05T13:54:57.634Z,33.6
2022-08-05T14:13:57.014Z,32.51
2022-08-05T14:34:52.861Z,31.81
2022-08-05T14:55:25.706Z,31.13
2022-08-05T15:15:13.681Z,29.95
2022-08-05T15:34:52.873Z,29.14
2022-08-05T15:55:06.870Z,28.24
2022-08-05T16:14:41.780Z,28.11
2022-08-05T16:55:01.455Z,27.92
2022-08-05T17:13:51.417Z,27.33
2022-08-05T17:35:20.742Z,26.03
2022-08-05T17:55:07.959Z,24.91
2022-08-05T18:15:20.370Z,23.86
2022-08-05T18:34:30.160Z,23.17
2022-08-05T18:55:26.922Z,22.7
2022-08-05T19:15:00.228Z,22.04
2022-08-05T19:35:12.633Z,21.49
2022-08-05T19:54:45.679Z,21.11
2022-08-05T20:15:13.648Z,20.95
2022-08-05T20:35:19.661Z,20.85
2022-08-05T20:54:55.462Z,18.69
2022-08-05T21:15:00.961Z,16.77
2022-08-05T21:33:50.531Z,16
2022-08-05T21:54:27.757Z,15.64
2022-08-05T22:14:34.945Z,15.13
2022-08-05T22:34:28.602Z,15.05
2022-08-05T22:54:48.865Z,15
2022-08-05T23:15:36.783Z,15.2
2022-08-05T23:34:32.037Z,15.21
2022-08-05T23:55:10.843Z,15.24
